sensor_id;sensor_type;location;lat;lon;timestamp;pressure;altitude;pressure_sealevel;temperature;humidity
73817;BME280;62146;53.232;-1.304;2023-03-01T00:01:08;102434.56;;;6.81;100.00
73817;BME280;62146;53.232;-1.304;2023-03-01T00:03:35;102433.75;;;6.80;100.00
73817;BME280;62146;53.232;-1.304;2023-03-01T00:06:03;102438.38;;;6.78;100.00
73817;BME280;62146;53.232;-1.304;2023-03-01T00:08:30;102429.16;;;6.74;100.00
73817;BME280;62146;53.232;-1.304;2023-03-01T00:11:27;102437.06;;;6.67;100.00
73817;BME280;62146;53.232;-1.304;2023-03-01T00:13:57;102437.53;;;6.62;100.00
73817;BME280;62146;53.232;-1.304;2023-03-01T00:16:47;102436.91;;;6.60;100.00
73817;BME280;62146;53.232;-1.304;2023-03-01T00:19:16;102440.19;;;6.62;100.00
73817;BME280;62146;53.232;-1.304;2023-03-01T00:21:43;102441.03;;;6.63;100.00
73817;BME280;62146;53.232;-1.304;2023-03-01T00:24:09;102441.84;;;6.63;100.00
73817;BME280;62146;53.232;-1.304;2023-03-01T00:26:37;102434.75;;;6.64;100.00
73817;BME280;62146;53.232;-1.304;2023-03-01T00:29:04;102437.53;;;6.62;100.00
73817;BME280;62146;53.232;-1.304;2023-03-01T00:31:32;102444.31;;;6.65;100.00
73817;BME280;62146;53.232;-1.304;2023-03-01T00:34:01;102442.00;;;6.62;100.00
73817;BME280;62146;53.232;-1.304;2023-03-01T00:36:30;102435.09;;;6.61;100.00
73817;BME280;62146;53.232;-1.304;2023-03-01T00:38:57;102442.16;;;6.60;100.00
73817;BME280;62146;53.232;-1.304;2023-03-01T00:41:24;102443.31;;;6.58;100.00
73817;BME280;62146;53.232;-1.304;2023-03-01T00:43:53;102440.69;;;6.58;100.00
73817;BME280;62146;53.232;-1.304;2023-03-01T00:46:22;102445.94;;;6.58;100.00
73817;BME280;62146;53.232;-1.304;2023-03-01T00:48:50;102448.44;;;6.59;100.00
73817;BME280;62146;53.232;-1.304;2023-03-01T00:51:19;102449.25;;;6.52;100.00
73817;BME280;62146;53.232;-1.304;2023-03-01T00:53:46;102439.53;;;6.52;100.00
73817;BME280;62146;53.232;-1.304;2023-03-01T00:56:14;102438.53;;;6.53;100.00
73817;BME280;62146;53.232;-1.304;2023-03-01T00:58:41;102430.81;;;6.52;100.00
73817;BME280;62146;53.232;-1.304;2023-03-01T01:03:45;102431.78;;;6.51;100.00
73817;BME280;62146;53.232;-1.304;2023-03-01T01:06:26;102433.09;;;6.47;100.00
73817;BME280;62146;53.232;-1.304;2023-03-01T01:08:54;102431.94;;;6.49;100.00
73817;BME280;62146;53.232;-1.304;2023-03-01T01:11:22;102425.03;;;6.48;100.00
73817;BME280;62146;53.232;-1.304;2023-03-01T01:13:49;102418.28;;;6.46;100.00
73817;BME280;62146;53.232;-1.304;2023-03-01T01:16:20;102419.09;;;6.46;100.00
73817;BME280;62146;53.232;-1.304;2023-03-01T01:18:47;102416.47;;;6.46;100.00
73817;BME280;62146;53.232;-1.304;2023-03-01T01:21:16;102409.56;;;6.45;100.00
73817;BME280;62146;53.232;-1.304;2023-03-01T01:23:45;102407.91;;;6.44;100.00
73817;BME280;62146;53.232;-1.304;2023-03-01T01:26:19;102411.19;;;6.46;100.00
73817;BME280;62146;53.232;-1.304;2023-03-01T01:28:46;102409.56;;;6.45;100.00
73817;BME280;62146;53.232;-1.304;2023-03-01T01:31:13;102405.91;;;6.46;100.00
73817;BME280;62146;53.232;-1.304;2023-03-01T01:33:40;102396.38;;;6.45;100.00
73817;BME280;62146;53.232;-1.304;2023-03-01T01:36:07;102408.56;;;6.46;100.00
73817;BME280;62146;53.232;-1.304;2023-03-01T01:38:35;102403.13;;;6.48;100.00
73817;BME280;62146;53.232;-1.304;2023-03-01T01:41:02;102407.75;;;6.46;100.00
73817;BME280;62146;53.232;-1.304;2023-03-01T01:43:33;102395.56;;;6.45;100.00
73817;BME280;62146;53.232;-1.304;2023-03-01T01:46:03;102391.28;;;6.44;100.00
73817;BME280;62146;53.232;-1.304;2023-03-01T01:48:40;102393.75;;;6.45;100.00
73817;BME280;62146;53.232;-1.304;2023-03-01T01:51:11;102385.16;;;6.43;100.00
73817;BME280;62146;53.232;-1.304;2023-03-01T01:53:39;102386.00;;;6.44;100.00
73817;BME280;62146;53.232;-1.304;2023-03-01T01:56:08;102385.16;;;6.43;100.00
73817;BME280;62146;53.232;-1.304;2023-03-01T01:58:37;102383.19;;;6.45;100.00
73817;BME280;62146;53.232;-1.304;2023-03-01T02:01:05;102384.19;;;6.44;100.00
73817;BME280;62146;53.232;-1.304;2023-03-01T02:03:33;102377.13;;;6.45;100.00
73817;BME280;62146;53.232;-1.304;2023-03-01T02:06:07;102377.94;;;6.45;100.00
73817;BME280;62146;53.232;-1.304;2023-03-01T02:08:40;102367.38;;;6.45;100.00
73817;BME280;62146;53.232;-1.304;2023-03-01T02:11:10;102373.47;;;6.46;100.00
73817;BME280;62146;53.232;-1.304;2023-03-01T02:13:37;102371.03;;;6.44;100.00
73817;BME280;62146;53.232;-1.304;2023-03-01T02:16:05;102363.75;;;6.46;100.00
73817;BME280;62146;53.232;-1.304;2023-03-01T02:18:34;102365.56;;;6.46;100.00
73817;BME280;62146;53.232;-1.304;2023-03-01T02:23:46;102367.38;;;6.45;100.00
73817;BME280;62146;53.232;-1.304;2023-03-01T02:26:20;102354.41;;;6.44;100.00
73817;BME280;62146;53.232;-1.304;2023-03-01T02:28:50;102356.69;;;6.47;100.00
73817;BME280;62146;53.232;-1.304;2023-03-01T02:31:19;102346.31;;;6.45;100.00
73817;BME280;62146;53.232;-1.304;2023-03-01T02:34:06;102350.09;;;6.43;100.00
73817;BME280;62146;53.232;-1.304;2023-03-01T02:36:39;102342.03;;;6.44;100.00
73817;BME280;62146;53.232;-1.304;2023-03-01T02:39:10;102338.59;;;6.44;100.00
73817;BME280;62146;53.232;-1.304;2023-03-01T02:41:44;102345.81;;;6.42;100.00
73817;BME280;62146;53.232;-1.304;2023-03-01T02:44:12;102327.38;;;6.42;100.00
73817;BME280;62146;53.232;-1.304;2023-03-01T02:46:47;102335.28;;;6.42;100.00
73817;BME280;62146;53.232;-1.304;2023-03-01T02:54:50;102324.41;;;6.37;100.00
73817;BME280;62146;53.232;-1.304;2023-03-01T02:57:19;102323.44;;;6.38;100.00
73817;BME280;62146;53.232;-1.304;2023-03-01T02:59:47;102316.34;;;6.39;100.00
73817;BME280;62146;53.232;-1.304;2023-03-01T03:02:23;102325.25;;;6.38;100.00
73817;BME280;62146;53.232;-1.304;2023-03-01T03:07:37;102321.94;;;6.36;100.00
73817;BME280;62146;53.232;-1.304;2023-03-01T03:10:05;102328.06;;;6.36;100.00
73817;BME280;62146;53.232;-1.304;2023-03-01T03:12:32;102325.88;;;6.32;100.00
73817;BME280;62146;53.232;-1.304;2023-03-01T03:14:59;102322.28;;;6.33;100.00
73817;BME280;62146;53.232;-1.304;2023-03-01T03:17:26;102327.56;;;6.33;100.00
73817;BME280;62146;53.232;-1.304;2023-03-01T03:19:52;102321.28;;;6.34;100.00
73817;BME280;62146;53.232;-1.304;2023-03-01T03:22:19;102314.03;;;6.36;100.00
73817;BME280;62146;53.232;-1.304;2023-03-01T03:24:45;102310.75;;;6.34;100.00
73817;BME280;62146;53.232;-1.304;2023-03-01T03:27:12;102315.03;;;6.35;100.00
73817;BME280;62146;53.232;-1.304;2023-03-01T03:29:38;102315.84;;;6.35;100.00
73817;BME280;62146;53.232;-1.304;2023-03-01T03:32:05;102315.22;;;6.33;100.00
73817;BME280;62146;53.232;-1.304;2023-03-01T03:34:31;102316.19;;;6.32;100.00
73817;BME280;62146;53.232;-1.304;2023-03-01T03:36:58;102312.72;;;6.32;100.00
73817;BME280;62146;53.232;-1.304;2023-03-01T03:39:26;102300.53;;;6.31;100.00
73817;BME280;62146;53.232;-1.304;2023-03-01T03:42:01;102304.00;;;6.31;100.00
73817;BME280;62146;53.232;-1.304;2023-03-01T03:44:28;102292.50;;;6.32;100.00
73817;BME280;62146;53.232;-1.304;2023-03-01T03:46:54;102294.47;;;6.30;100.00
73817;BME280;62146;53.232;-1.304;2023-03-01T03:49:21;102291.81;;;6.30;100.00
73817;BME280;62146;53.232;-1.304;2023-03-01T03:51:47;102297.25;;;6.29;100.00
73817;BME280;62146;53.232;-1.304;2023-03-01T03:54:14;102282.44;;;6.28;100.00
73817;BME280;62146;53.232;-1.304;2023-03-01T03:56:40;102284.25;;;6.27;100.00
73817;BME280;62146;53.232;-1.304;2023-03-01T03:59:08;102285.25;;;6.26;100.00
73817;BME280;62146;53.232;-1.304;2023-03-01T04:01:37;102285.25;;;6.26;100.00
73817;BME280;62146;53.232;-1.304;2023-03-01T04:04:04;102281.78;;;6.26;100.00
73817;BME280;62146;53.232;-1.304;2023-03-01T04:06:30;102282.44;;;6.28;100.00
73817;BME280;62146;53.232;-1.304;2023-03-01T04:08:58;102287.69;;;6.28;100.00
73817;BME280;62146;53.232;-1.304;2023-03-01T04:11:28;102283.44;;;6.27;100.00
73817;BME280;62146;53.232;-1.304;2023-03-01T04:13:57;102287.88;;;6.26;100.00
73817;BME280;62146;53.232;-1.304;2023-03-01T04:16:24;102274.53;;;6.28;100.00
73817;BME280;62146;53.232;-1.304;2023-03-01T04:18:51;102274.53;;;6.28;100.00
73817;BME280;62146;53.232;-1.304;2023-03-01T04:21:19;102282.78;;;6.25;100.00
73817;BME280;62146;53.232;-1.304;2023-03-01T04:23:46;102277.66;;;6.23;100.00
73817;BME280;62146;53.232;-1.304;2023-03-01T04:26:13;102277.03;;;6.21;100.00
73817;BME280;62146;53.232;-1.304;2023-03-01T04:28:41;102268.31;;;6.21;100.00
73817;BME280;62146;53.232;-1.304;2023-03-01T04:31:16;102268.31;;;6.21;100.00
73817;BME280;62146;53.232;-1.304;2023-03-01T04:33:52;102268.31;;;6.21;100.00
73817;BME280;62146;53.232;-1.304;2023-03-01T04:36:22;102268.31;;;6.21;100.00
73817;BME280;62146;53.232;-1.304;2023-03-01T04:38:50;102266.63;;;6.20;100.00
73817;BME280;62146;53.232;-1.304;2023-03-01T04:41:18;102266.81;;;6.18;100.00
73817;BME280;62146;53.232;-1.304;2023-03-01T04:43:45;102268.63;;;6.18;100.00
73817;BME280;62146;53.232;-1.304;2023-03-01T04:46:14;102267.81;;;6.17;100.00
73817;BME280;62146;53.232;-1.304;2023-03-01T04:48:42;102267.00;;;6.17;100.00
73817;BME280;62146;53.232;-1.304;2023-03-01T04:51:10;102267.94;;;6.16;100.00
73817;BME280;62146;53.232;-1.304;2023-03-01T04:53:40;102266.13;;;6.16;100.00
73817;BME280;62146;53.232;-1.304;2023-03-01T04:56:07;102267.94;;;6.16;100.00
73817;BME280;62146;53.232;-1.304;2023-03-01T04:58:34;102263.50;;;6.16;100.00
73817;BME280;62146;53.232;-1.304;2023-03-01T05:01:01;102264.34;;;6.17;100.00
73817;BME280;62146;53.232;-1.304;2023-03-01T05:03:27;102258.09;;;6.18;100.00
73817;BME280;62146;53.232;-1.304;2023-03-01T05:05:58;102255.47;;;6.18;100.00
73817;BME280;62146;53.232;-1.304;2023-03-01T05:08:25;102253.81;;;6.17;100.00
73817;BME280;62146;53.232;-1.304;2023-03-01T05:10:53;102254.63;;;6.17;100.00
73817;BME280;62146;53.232;-1.304;2023-03-01T05:13:21;102248.56;;;6.17;100.00
73817;BME280;62146;53.232;-1.304;2023-03-01T05:15:53;102243.28;;;6.17;100.00
73817;BME280;62146;53.232;-1.304;2023-03-01T05:18:21;102251.19;;;6.17;100.00
73817;BME280;62146;53.232;-1.304;2023-03-01T05:20:47;102256.47;;;6.17;100.00
73817;BME280;62146;53.232;-1.304;2023-03-01T05:23:14;102245.91;;;6.17;100.00
73817;BME280;62146;53.232;-1.304;2023-03-01T05:25:40;102246.06;;;6.15;100.00
73817;BME280;62146;53.232;-1.304;2023-03-01T05:28:10;102247.88;;;6.15;100.00
73817;BME280;62146;53.232;-1.304;2023-03-01T05:30:37;102254.28;;;6.13;100.00
73817;BME280;62146;53.232;-1.304;2023-03-01T05:33:08;102241.31;;;6.11;100.00
73817;BME280;62146;53.232;-1.304;2023-03-01T05:35:41;102246.56;;;6.11;100.00
73817;BME280;62146;53.232;-1.304;2023-03-01T05:38:10;102253.47;;;6.12;100.00
73817;BME280;62146;53.232;-1.304;2023-03-01T05:40:41;102255.28;;;6.12;100.00
73817;BME280;62146;53.232;-1.304;2023-03-01T05:43:08;102255.63;;;6.09;100.00
73817;BME280;62146;53.232;-1.304;2023-03-01T05:45:36;102251.16;;;6.09;100.00
73817;BME280;62146;53.232;-1.304;2023-03-01T05:48:05;102254.78;;;6.08;100.00
73817;BME280;62146;53.232;-1.304;2023-03-01T05:50:35;102243.44;;;6.08;100.00
73817;BME280;62146;53.232;-1.304;2023-03-01T05:53:13;102245.25;;;6.07;100.00
73817;BME280;62146;53.232;-1.304;2023-03-01T05:55:42;102246.06;;;6.08;100.00
73817;BME280;62146;53.232;-1.304;2023-03-01T05:58:14;102241.63;;;6.08;100.00
73817;BME280;62146;53.232;-1.304;2023-03-01T06:00:42;102241.00;;;6.06;100.00
73817;BME280;62146;53.232;-1.304;2023-03-01T06:03:11;102238.69;;;6.03;100.00
73817;BME280;62146;53.232;-1.304;2023-03-01T06:05:38;102245.91;;;6.01;100.00
73817;BME280;62146;53.232;-1.304;2023-03-01T06:08:06;102247.56;;;6.02;100.00
73817;BME280;62146;53.232;-1.304;2023-03-01T06:10:32;102243.44;;;6.00;100.00
73817;BME280;62146;53.232;-1.304;2023-03-01T06:12:59;102250.22;;;5.94;100.00
73817;BME280;62146;53.232;-1.304;2023-03-01T06:15:26;102250.53;;;5.84;100.00
73817;BME280;62146;53.232;-1.304;2023-03-01T06:17:54;102244.44;;;5.75;100.00
73817;BME280;62146;53.232;-1.304;2023-03-01T06:20:26;102240.50;;;5.71;100.00
73817;BME280;62146;53.232;-1.304;2023-03-01T06:22:53;102236.06;;;5.72;100.00
73817;BME280;62146;53.232;-1.304;2023-03-01T06:25:23;102230.13;;;5.70;100.00
73817;BME280;62146;53.232;-1.304;2023-03-01T06:27:50;102238.31;;;5.67;100.00
73817;BME280;62146;53.232;-1.304;2023-03-01T06:30:20;102235.16;;;5.63;100.00
73817;BME280;62146;53.232;-1.304;2023-03-01T06:32:47;102243.56;;;5.59;100.00
73817;BME280;62146;53.232;-1.304;2023-03-01T06:35:16;102238.28;;;5.59;100.00
73817;BME280;62146;53.232;-1.304;2023-03-01T06:37:47;102243.56;;;5.59;100.00
73817;BME280;62146;53.232;-1.304;2023-03-01T06:40:14;102242.25;;;5.63;100.00
73817;BME280;62146;53.232;-1.304;2023-03-01T06:42:43;102240.94;;;5.67;100.00
73817;BME280;62146;53.232;-1.304;2023-03-01T06:45:10;102244.88;;;5.63;100.00
73817;BME280;62146;53.232;-1.304;2023-03-01T06:47:37;102246.38;;;5.65;100.00
73817;BME280;62146;53.232;-1.304;2023-03-01T06:50:04;102244.41;;;5.67;100.00
73817;BME280;62146;53.232;-1.304;2023-03-01T06:52:31;102248.69;;;5.68;100.00
73817;BME280;62146;53.232;-1.304;2023-03-01T06:54:57;102255.75;;;5.68;100.00
73817;BME280;62146;53.232;-1.304;2023-03-01T06:57:24;102254.47;;;5.72;100.00
73817;BME280;62146;53.232;-1.304;2023-03-01T06:59:51;102253.31;;;5.74;100.00
73817;BME280;62146;53.232;-1.304;2023-03-01T07:02:17;102247.72;;;5.77;100.00
73817;BME280;62146;53.232;-1.304;2023-03-01T07:04:44;102240.66;;;5.78;100.00
73817;BME280;62146;53.232;-1.304;2023-03-01T07:07:11;102251.69;;;5.81;100.00
73817;BME280;62146;53.232;-1.304;2023-03-01T07:09:37;102249.72;;;5.83;100.00
73817;BME280;62146;53.232;-1.304;2023-03-01T07:12:04;102248.72;;;5.84;100.00
73817;BME280;62146;53.232;-1.304;2023-03-01T07:14:31;102244.09;;;5.86;100.00
73817;BME280;62146;53.232;-1.304;2023-03-01T07:16:58;102244.09;;;5.86;100.00
73817;BME280;62146;53.232;-1.304;2023-03-01T07:19:25;102245.59;;;5.88;100.00
73817;BME280;62146;53.232;-1.304;2023-03-01T07:21:51;102238.50;;;5.89;100.00
73817;BME280;62146;53.232;-1.304;2023-03-01T07:24:18;102234.88;;;5.90;100.00
73817;BME280;62146;53.232;-1.304;2023-03-01T07:26:48;102236.69;;;5.89;100.00
73817;BME280;62146;53.232;-1.304;2023-03-01T07:29:15;102244.28;;;5.92;100.00
73817;BME280;62146;53.232;-1.304;2023-03-01T07:31:42;102244.28;;;5.92;100.00
73817;BME280;62146;53.232;-1.304;2023-03-01T07:34:09;102239.00;;;5.92;100.00
73817;BME280;62146;53.232;-1.304;2023-03-01T07:36:37;102238.84;;;5.94;100.00
73817;BME280;62146;53.232;-1.304;2023-03-01T07:39:04;102244.78;;;5.96;100.00
73817;BME280;62146;53.232;-1.304;2023-03-01T07:41:30;102236.06;;;5.95;100.00
73817;BME280;62146;53.232;-1.304;2023-03-01T07:43:57;102228.78;;;5.97;100.00
73817;BME280;62146;53.232;-1.304;2023-03-01T07:46:24;102234.56;;;6.01;100.00
73817;BME280;62146;53.232;-1.304;2023-03-01T07:48:50;102235.38;;;6.01;100.00
73817;BME280;62146;53.232;-1.304;2023-03-01T07:51:17;102231.09;;;6.00;100.00
73817;BME280;62146;53.232;-1.304;2023-03-01T07:53:47;102239.81;;;6.01;100.00
73817;BME280;62146;53.232;-1.304;2023-03-01T07:56:15;102242.13;;;6.04;100.00
73817;BME280;62146;53.232;-1.304;2023-03-01T07:58:44;102236.88;;;6.04;100.00
73817;BME280;62146;53.232;-1.304;2023-03-01T08:01:16;102234.06;;;6.05;100.00
73817;BME280;62146;53.232;-1.304;2023-03-01T08:03:43;102233.91;;;6.07;100.00
73817;BME280;62146;53.232;-1.304;2023-03-01T08:06:12;102236.38;;;6.08;100.00
73817;BME280;62146;53.232;-1.304;2023-03-01T08:08:39;102232.72;;;6.09;100.00
73817;BME280;62146;53.232;-1.304;2023-03-01T08:11:07;102235.22;;;6.11;100.00
73817;BME280;62146;53.232;-1.304;2023-03-01T08:13:34;102233.59;;;6.10;100.00
73817;BME280;62146;53.232;-1.304;2023-03-01T08:16:02;102237.84;;;6.11;100.00
73817;BME280;62146;53.232;-1.304;2023-03-01T08:18:29;102241.31;;;6.11;100.00
73817;BME280;62146;53.232;-1.304;2023-03-01T08:21:00;102240.31;;;6.12;100.00
73817;BME280;62146;53.232;-1.304;2023-03-01T08:23:27;102241.97;;;6.13;100.00
73817;BME280;62146;53.232;-1.304;2023-03-01T08:25:53;102242.78;;;6.14;100.00
73817;BME280;62146;53.232;-1.304;2023-03-01T08:28:20;102254.16;;;6.14;100.00
73817;BME280;62146;53.232;-1.304;2023-03-01T08:30:47;102250.50;;;6.15;100.00
73817;BME280;62146;53.232;-1.304;2023-03-01T08:33:13;102246.06;;;6.15;100.00
73817;BME280;62146;53.232;-1.304;2023-03-01T08:35:40;102248.56;;;6.17;100.00
73817;BME280;62146;53.232;-1.304;2023-03-01T08:38:07;102244.75;;;6.19;100.00
73817;BME280;62146;53.232;-1.304;2023-03-01T08:40:34;102243.75;;;6.20;100.00
73817;BME280;62146;53.232;-1.304;2023-03-01T08:43:00;102239.97;;;6.23;100.00
73817;BME280;62146;53.232;-1.304;2023-03-01T08:45:27;102234.38;;;6.26;100.00
73817;BME280;62146;53.232;-1.304;2023-03-01T08:47:53;102235.00;;;6.28;100.00
73817;BME280;62146;53.232;-1.304;2023-03-01T08:50:20;102247.03;;;6.30;100.00
73817;BME280;62146;53.232;-1.304;2023-03-01T08:52:47;102242.44;;;6.32;100.00
73817;BME280;62146;53.232;-1.304;2023-03-01T08:55:13;102239.63;;;6.34;100.00
73817;BME280;62146;53.232;-1.304;2023-03-01T08:57:43;102238.63;;;6.35;100.00
73817;BME280;62146;53.232;-1.304;2023-03-01T09:00:10;102238.31;;;6.38;100.00
73817;BME280;62146;53.232;-1.304;2023-03-01T09:02:41;102240.59;;;6.41;100.00
73817;BME280;62146;53.232;-1.304;2023-03-01T09:05:08;102244.06;;;6.41;100.00
73817;BME280;62146;53.232;-1.304;2023-03-01T09:07:34;102253.41;;;6.43;100.00
73817;BME280;62146;53.232;-1.304;2023-03-01T09:10:01;102247.19;;;6.44;100.00
73817;BME280;62146;53.232;-1.304;2023-03-01T09:12:28;102247.00;;;6.46;100.00
73817;BME280;62146;53.232;-1.304;2023-03-01T09:14:54;102240.72;;;6.47;100.00
73817;BME280;62146;53.232;-1.304;2023-03-01T09:17:21;102239.59;;;6.49;100.00
73817;BME280;62146;53.232;-1.304;2023-03-01T09:19:47;102240.41;;;6.50;100.00
73817;BME280;62146;53.232;-1.304;2023-03-01T09:22:14;102235.94;;;6.50;100.00
73817;BME280;62146;53.232;-1.304;2023-03-01T09:24:41;102237.44;;;6.53;100.00
73817;BME280;62146;53.232;-1.304;2023-03-01T09:27:08;102234.63;;;6.54;100.00
73817;BME280;62146;53.232;-1.304;2023-03-01T09:29:36;102223.75;;;6.57;100.00
73817;BME280;62146;53.232;-1.304;2023-03-01T09:32:03;102216.50;;;6.59;100.00
73817;BME280;62146;53.232;-1.304;2023-03-01T09:34:30;102210.06;;;6.62;100.00
73817;BME280;62146;53.232;-1.304;2023-03-01T09:36:57;102196.53;;;6.65;100.00
73817;BME280;62146;53.232;-1.304;2023-03-01T09:39:24;102191.09;;;6.66;100.00
73817;BME280;62146;53.232;-1.304;2023-03-01T09:42:00;102190.75;;;6.69;100.00
73817;BME280;62146;53.232;-1.304;2023-03-01T09:44:51;102192.06;;;6.73;100.00
73817;BME280;62146;53.232;-1.304;2023-03-01T09:47:21;102192.38;;;6.78;100.00
73817;BME280;62146;53.232;-1.304;2023-03-01T09:50:04;102183.28;;;6.80;100.00
73817;BME280;62146;53.232;-1.304;2023-03-01T09:55:24;102183.44;;;6.87;100.00
73817;BME280;62146;53.232;-1.304;2023-03-01T09:58:29;102173.19;;;6.92;100.00
73817;BME280;62146;53.232;-1.304;2023-03-01T10:04:00;102176.78;;;6.98;100.00
73817;BME280;62146;53.232;-1.304;2023-03-01T10:06:28;102172.81;;;7.02;100.00
73817;BME280;62146;53.232;-1.304;2023-03-01T10:09:09;102177.75;;;7.05;100.00
73817;BME280;62146;53.232;-1.304;2023-03-01T10:11:41;102171.94;;;7.10;100.00
73817;BME280;62146;53.232;-1.304;2023-03-01T10:17:25;102166.41;;;7.19;100.00
73817;BME280;62146;53.232;-1.304;2023-03-01T10:19:53;102163.09;;;7.25;100.00
73817;BME280;62146;53.232;-1.304;2023-03-01T10:22:22;102161.41;;;7.32;100.00
73817;BME280;62146;53.232;-1.304;2023-03-01T10:24:52;102159.72;;;7.39;100.00
73817;BME280;62146;53.232;-1.304;2023-03-01T10:30:09;102150.38;;;7.50;100.00
73817;BME280;62146;53.232;-1.304;2023-03-01T10:32:39;102157.91;;;7.53;100.00
73817;BME280;62146;53.232;-1.304;2023-03-01T10:35:25;102152.47;;;7.55;100.00
73817;BME280;62146;53.232;-1.304;2023-03-01T10:38:13;102149.66;;;7.56;100.00
73817;BME280;62146;53.232;-1.304;2023-03-01T10:41:00;102146.84;;;7.58;100.00
73817;BME280;62146;53.232;-1.304;2023-03-01T10:43:56;102145.50;;;7.62;100.00
73817;BME280;62146;53.232;-1.304;2023-03-01T10:46:30;102137.03;;;7.66;100.00
73817;BME280;62146;53.232;-1.304;2023-03-01T10:49:20;102139.75;;;7.73;100.00
73817;BME280;62146;53.232;-1.304;2023-03-01T10:51:50;102133.13;;;7.76;100.00
73817;BME280;62146;53.232;-1.304;2023-03-01T10:56:56;102131.25;;;7.85;100.00
73817;BME280;62146;53.232;-1.304;2023-03-01T10:59:37;102127.59;;;7.86;100.00
73817;BME280;62146;53.232;-1.304;2023-03-01T11:02:30;102139.78;;;7.87;100.00
73817;BME280;62146;53.232;-1.304;2023-03-01T11:07:56;102130.88;;;7.88;100.00
73817;BME280;62146;53.232;-1.304;2023-03-01T11:10:26;102128.22;;;7.88;100.00
73817;BME280;62146;53.232;-1.304;2023-03-01T11:13:05;102129.06;;;7.88;100.00
73817;BME280;62146;53.232;-1.304;2023-03-01T11:15:33;102119.78;;;7.92;100.00
73817;BME280;62146;53.232;-1.304;2023-03-01T11:18:00;102107.00;;;7.96;100.00
73817;BME280;62146;53.232;-1.304;2023-03-01T11:20:39;102105.13;;;8.04;100.00
73817;BME280;62146;53.232;-1.304;2023-03-01T11:23:11;102098.97;;;8.11;100.00
73817;BME280;62146;53.232;-1.304;2023-03-01T11:25:43;102096.84;;;8.21;100.00
73817;BME280;62146;53.232;-1.304;2023-03-01T11:28:14;102103.16;;;8.34;100.00
73817;BME280;62146;53.232;-1.304;2023-03-01T11:30:53;102089.44;;;8.45;100.00
73817;BME280;62146;53.232;-1.304;2023-03-01T11:33:43;102091.44;;;8.57;100.00
73817;BME280;62146;53.232;-1.304;2023-03-01T11:36:51;102101.34;;;8.70;100.00
73817;BME280;62146;53.232;-1.304;2023-03-01T11:39:51;102085.56;;;8.76;100.00
73817;BME280;62146;53.232;-1.304;2023-03-01T11:42:29;102083.78;;;8.83;100.00
73817;BME280;62146;53.232;-1.304;2023-03-01T11:45:02;102079.41;;;8.90;100.00
73817;BME280;62146;53.232;-1.304;2023-03-01T11:53:05;102075.50;;;9.07;100.00
73817;BME280;62146;53.232;-1.304;2023-03-01T11:55:58;102068.84;;;9.10;100.00
73817;BME280;62146;53.232;-1.304;2023-03-01T11:59:08;102070.63;;;9.10;100.00
73817;BME280;62146;53.232;-1.304;2023-03-01T12:04:36;102053.41;;;9.14;100.00
73817;BME280;62146;53.232;-1.304;2023-03-01T12:08:19;102046.50;;;9.19;100.00
73817;BME280;62146;53.232;-1.304;2023-03-01T12:13:03;102032.13;;;9.28;100.00
73817;BME280;62146;53.232;-1.304;2023-03-01T12:15:41;102041.31;;;9.32;100.00
73817;BME280;62146;53.232;-1.304;2023-03-01T12:29:44;102042.84;;;9.41;100.00
73817;BME280;62146;53.232;-1.304;2023-03-01T12:32:29;102025.13;;;9.41;100.00
73817;BME280;62146;53.232;-1.304;2023-03-01T12:38:23;102019.31;;;9.59;100.00
73817;BME280;62146;53.232;-1.304;2023-03-01T12:49:24;102004.41;;;9.85;100.00
73817;BME280;62146;53.232;-1.304;2023-03-01T12:52:09;101998.94;;;9.86;100.00
73817;BME280;62146;53.232;-1.304;2023-03-01T12:54:37;101987.53;;;9.86;100.00
73817;BME280;62146;53.232;-1.304;2023-03-01T12:57:37;101986.06;;;9.83;100.00
73817;BME280;62146;53.232;-1.304;2023-03-01T13:00:38;101984.63;;;9.81;100.00
73817;BME280;62146;53.232;-1.304;2023-03-01T13:03:22;101978.72;;;9.79;100.00
73817;BME280;62146;53.232;-1.304;2023-03-01T13:06:10;101969.31;;;9.76;100.00
73817;BME280;62146;53.232;-1.304;2023-03-01T13:08:48;101961.75;;;9.73;100.00
73817;BME280;62146;53.232;-1.304;2023-03-01T13:11:19;101951.16;;;9.73;100.00
73817;BME280;62146;53.232;-1.304;2023-03-01T13:13:46;101945.47;;;9.76;100.00
73817;BME280;62146;53.232;-1.304;2023-03-01T13:16:39;101933.47;;;9.80;100.00
73817;BME280;62146;53.232;-1.304;2023-03-01T13:19:12;101940.00;;;9.84;100.00
73817;BME280;62146;53.232;-1.304;2023-03-01T13:21:40;101927.22;;;9.88;100.00
73817;BME280;62146;53.232;-1.304;2023-03-01T13:24:27;101916.66;;;9.94;100.00
73817;BME280;62146;53.232;-1.304;2023-03-01T13:29:53;101911.16;;;9.95;100.00
73817;BME280;62146;53.232;-1.304;2023-03-01T13:32:30;101921.75;;;9.95;100.00
73817;BME280;62146;53.232;-1.304;2023-03-01T13:37:43;101914.22;;;9.99;100.00
73817;BME280;62146;53.232;-1.304;2023-03-01T13:40:56;101904.84;;;10.03;100.00
73817;BME280;62146;53.232;-1.304;2023-03-01T13:43:42;101914.63;;;10.09;100.00
73817;BME280;62146;53.232;-1.304;2023-03-01T13:46:15;101908.34;;;10.10;100.00
73817;BME280;62146;53.232;-1.304;2023-03-01T13:48:46;101909.16;;;10.10;100.00
73817;BME280;62146;53.232;-1.304;2023-03-01T13:51:15;101900.41;;;10.10;100.00
73817;BME280;62146;53.232;-1.304;2023-03-01T13:53:45;101898.75;;;10.09;100.00
73817;BME280;62146;53.232;-1.304;2023-03-01T13:56:55;101897.53;;;10.11;100.00
73817;BME280;62146;53.232;-1.304;2023-03-01T13:59:06;101880.03;;;10.23;100.00
73817;BME280;62146;53.232;-1.304;2023-03-01T14:01:39;101863.13;;;10.37;100.00
73817;BME280;62146;53.232;-1.304;2023-03-01T14:04:38;101866.81;;;10.55;100.00
73817;BME280;62146;53.232;-1.304;2023-03-01T14:07:18;101856.38;;;10.66;100.00
73817;BME280;62146;53.232;-1.304;2023-03-01T14:09:48;101863.31;;;10.73;100.00
73817;BME280;62146;53.232;-1.304;2023-03-01T14:15:08;101858.44;;;10.70;100.00